createdAt,value
2023-03-15T00:01:54.535Z,0
2023-03-15T00:07:16.963Z,3
2023-03-15T00:12:42.764Z,0
2023-03-15T00:18:05.715Z,0
2023-03-15T00:23:31.593Z,1
2023-03-15T00:28:54.269Z,0
2023-03-15T00:34:25.751Z,0
2023-03-15T00:40:09.937Z,0
2023-03-15T00:45:33.162Z,0
2023-03-15T00:50:55.436Z,0
2023-03-15T00:56:20.438Z,0
2023-03-15T01:01:43.508Z,0
2023-03-15T01:12:47.712Z,0
2023-03-15T01:18:10.281Z,0
2023-03-15T01:23:40.184Z,0
2023-03-15T01:29:03.524Z,0
2023-03-15T01:34:26.256Z,0
2023-03-15T01:39:52.183Z,0
2023-03-15T01:45:14.995Z,2
2023-03-15T01:50:40.324Z,0
2023-03-15T01:56:14.901Z,0
2023-03-15T02:01:37.498Z,0
2023-03-15T02:07:00.136Z,1
2023-03-15T02:12:22.780Z,2
2023-03-15T02:17:49.085Z,0
2023-03-15T02:23:11.709Z,0
2023-03-15T02:28:34.315Z,0
2023-03-15T02:33:57.033Z,0
2023-03-15T02:39:44.619Z,0
2023-03-15T02:45:07.330Z,0
2023-03-15T02:50:30.069Z,0
2023-03-15T02:56:00.748Z,0
2023-03-15T03:01:24.251Z,0
2023-03-15T15:19:11.554Z,738.8
2023-03-15T15:24:33.586Z,645.1
2023-03-15T15:30:05.582Z,596.4
2023-03-15T15:35:28.243Z,543.9
2023-03-15T15:40:50.580Z,523.5
2023-03-15T15:46:15.571Z,504.2
2023-03-15T15:51:38.294Z,472.6
2023-03-15T15:57:11.812Z,426.1
2023-03-15T16:02:34.306Z,375.7
2023-03-15T16:07:56.931Z,347.9
2023-03-15T16:13:19.262Z,331.7
2023-03-15T16:18:44.106Z,330.6
2023-03-15T16:24:06.535Z,295.4
2023-03-15T16:29:28.828Z,276.2
2023-03-15T16:34:51.438Z,239.7
2023-03-15T16:40:25.689Z,229.9
2023-03-15T16:45:48.095Z,210.2
2023-03-15T16:51:10.396Z,190
2023-03-15T16:56:41.136Z,123.9
2023-03-15T17:02:03.876Z,77.2
2023-03-15T17:07:37.707Z,63.2
2023-03-15T17:13:00.392Z,59.4
2023-03-15T17:18:22.838Z,42
2023-03-15T17:23:44.955Z,37
2023-03-15T17:29:10.379Z,28.3
2023-03-15T17:34:33.508Z,26
2023-03-15T17:40:03.214Z,13
2023-03-15T17:45:25.638Z,5
2023-03-15T17:56:23.998Z,0
2023-03-15T18:01:46.627Z,0
2023-03-15T18:08:04.241Z,0
2023-03-15T18:13:27.294Z,0
2023-03-15T18:18:57.004Z,0
2023-03-15T18:24:19.583Z,0
2023-03-15T18:29:43.733Z,0
2023-03-15T18:35:15.027Z,0
2023-03-15T18:40:37.716Z,0
2023-03-15T18:46:02.598Z,0
2023-03-15T18:51:27.928Z,0
2023-03-15T18:56:50.307Z,0
2023-03-15T19:02:13.082Z,0
2023-03-15T19:08:02.042Z,0
2023-03-15T19:13:24.913Z,0
2023-03-15T19:18:47.498Z,0
2023-03-15T19:24:12.231Z,0
2023-03-15T19:29:34.815Z,0
2023-03-15T19:34:57.176Z,0
2023-03-15T19:40:26.904Z,0
2023-03-15T19:45:50.159Z,0
2023-03-15T19:51:13.113Z,0
2023-03-15T19:56:35.796Z,0
2023-03-15T20:02:12.125Z,0
2023-03-15T20:07:35.037Z,0
2023-03-15T20:12:57.594Z,0
2023-03-15T20:18:27.609Z,0
2023-03-15T20:23:50.312Z,0
2023-03-15T20:29:12.807Z,0
2023-03-15T20:34:35.447Z,0
2023-03-15T20:39:58.162Z,0
2023-03-15T20:45:23.776Z,0
2023-03-15T20:50:46.647Z,0
2023-03-15T20:56:09.497Z,0
2023-03-15T21:01:32.879Z,0
2023-03-15T21:07:05.709Z,0
2023-03-15T21:12:28.601Z,0
2023-03-15T21:17:54.797Z,0
2023-03-15T21:23:20.317Z,0
2023-03-15T21:28:43.020Z,0
2023-03-15T21:34:05.279Z,0
2023-03-15T21:39:35.194Z,0
2023-03-15T21:44:57.552Z,0
2023-03-15T21:50:20.024Z,0
2023-03-15T22:01:29.224Z,0
2023-03-15T22:06:56.831Z,0
2023-03-15T22:12:19.373Z,0
2023-03-15T22:17:42.329Z,0
2023-03-15T22:23:04.827Z,0
2023-03-15T22:28:29.676Z,0
2023-03-15T22:33:52.208Z,0
2023-03-15T22:39:18.046Z,0
2023-03-15T22:44:41.576Z,0
2023-03-15T22:50:04.306Z,0
2023-03-15T22:55:27.043Z,0
2023-03-15T23:06:20.691Z,0
2023-03-15T23:11:43.518Z,0
2023-03-15T23:17:06.175Z,0
2023-03-15T23:22:28.669Z,0
2023-03-15T23:27:51.127Z,0
2023-03-15T23:33:16.012Z,0
2023-03-15T23:38:38.501Z,0
2023-03-15T23:44:06.614Z,0
2023-03-15T23:49:29.076Z,0
2023-03-15T23:54:57.826Z,0
